createdAt,value
2022-08-23T00:13:06.066Z,4.97
2022-08-23T00:38:33.109Z,4.63
2022-08-23T00:45:20.953Z,6.30
2022-08-23T00:50:26.437Z,6.22
2022-08-23T00:55:33.820Z,7.70
2022-08-23T01:15:16.817Z,2.85
2022-08-23T01:20:26.930Z,4.20
2022-08-23T01:25:45.735Z,4.10
2022-08-23T01:37:48.747Z,3.25
2022-08-23T01:42:52.127Z,4.05
2022-08-23T01:47:55.929Z,5.47
2022-08-23T01:53:01.937Z,5.30
2022-08-23T01:58:07.357Z,7.10
2022-08-23T02:03:16.528Z,5.63
2022-08-23T02:08:38.317Z,5.03
2022-08-23T02:13:45.621Z,5.25
2022-08-23T02:18:49.152Z,2.70
2022-08-23T02:23:52.577Z,5.07
2022-08-23T02:28:56.518Z,4.43
2022-08-23T02:39:40.076Z,6.88
2022-08-23T02:44:57.073Z,8.00
2022-08-23T02:55:32.663Z,4.07
2022-08-23T03:08:31.997Z,6.78
2022-08-23T03:33:34.435Z,7.22
2022-08-23T03:38:43.445Z,3.78
2022-08-23T03:43:46.919Z,7.55
2022-08-23T03:48:59.188Z,4.40
2022-08-23T03:54:02.947Z,8.55
2022-08-23T03:59:09.928Z,4.03
2022-08-23T04:10:32.186Z,5.43
2022-08-23T04:15:36.062Z,4.50
2022-08-23T04:20:39.836Z,11.70
2022-08-23T04:25:46.179Z,5.32
2022-08-23T04:30:53.020Z,5.85
2022-08-23T04:35:56.376Z,7.88
2022-08-23T04:41:18.977Z,7.20
2022-08-23T04:46:22.377Z,5.55
2022-08-23T04:51:25.556Z,6.60
2022-08-23T04:56:29.217Z,9.57
2022-08-23T05:01:32.865Z,7.15
2022-08-23T05:06:36.617Z,5.40
2022-08-23T05:11:40.237Z,9.68
2022-08-23T05:16:43.606Z,4.43
2022-08-23T05:21:47.096Z,6.40
2022-08-23T05:26:50.497Z,7.72
2022-08-23T05:31:53.646Z,11.75
2022-08-23T05:36:57.164Z,7.30
2022-08-23T05:42:00.607Z,6.47
2022-08-23T05:47:10.816Z,8.32
2022-08-23T05:52:15.644Z,7.30
2022-08-23T05:57:19.102Z,6.25
2022-08-23T06:02:22.270Z,7.15
2022-08-23T06:07:25.426Z,9.35
2022-08-23T06:12:28.863Z,6.82
2022-08-23T06:17:32.354Z,12.82
2022-08-23T06:22:35.578Z,7.25
2022-08-23T06:27:38.837Z,10.40
2022-08-23T06:32:42.293Z,12.77
2022-08-23T06:37:47.473Z,11.10
2022-08-23T06:42:50.687Z,11.60
2022-08-23T06:47:54.050Z,11.00
2022-08-23T06:52:57.369Z,9.82
2022-08-23T06:58:00.448Z,12.32
2022-08-23T07:03:03.860Z,10.00
2022-08-23T07:08:07.386Z,11.52
2022-08-23T07:13:10.654Z,8.98
2022-08-23T07:18:13.858Z,11.40
2022-08-23T07:23:18.226Z,12.70
2022-08-23T07:28:21.975Z,10.23
2022-08-23T07:33:25.224Z,11.95
2022-08-23T07:38:30.797Z,14.23
2022-08-23T07:43:34.699Z,16.00
2022-08-23T07:48:53.355Z,15.23
2022-08-23T07:53:58.526Z,15.07
2022-08-23T07:59:02.209Z,23.42
2022-08-23T08:04:07.057Z,23.73
2022-08-23T08:09:11.602Z,18.02
2022-08-23T08:14:15.821Z,17.52
2022-08-23T08:19:20.017Z,25.05
2022-08-23T08:24:23.321Z,23.02
2022-08-23T08:29:26.747Z,29.40
2022-08-23T08:34:30.045Z,28.40
2022-08-23T08:39:34.686Z,39.00
2022-08-23T08:44:50.222Z,33.22
2022-08-23T08:49:56.406Z,25.00
2022-08-23T08:55:23.082Z,25.85
2022-08-23T09:00:31.259Z,24.35
2022-08-23T09:05:40.406Z,18.50
2022-08-23T09:11:01.835Z,25.33
2022-08-23T09:16:17.068Z,22.17
2022-08-23T09:21:21.076Z,21.52
2022-08-23T09:26:27.207Z,21.48
2022-08-23T09:31:45.511Z,22.10
2022-08-23T09:36:50.630Z,22.20
2022-08-23T09:41:56.016Z,19.20
2022-08-23T09:47:13.033Z,16.50
2022-08-23T09:52:34.116Z,21.77
2022-08-23T09:57:37.905Z,18.60
2022-08-23T10:02:41.245Z,22.67
2022-08-23T10:07:53.487Z,18.27
2022-08-23T10:12:59.894Z,16.23
2022-08-23T10:18:11.667Z,23.88
2022-08-23T10:23:23.437Z,23.30
2022-08-23T10:29:04.408Z,21.13
2022-08-23T10:34:21.637Z,18.20
2022-08-23T10:39:30.645Z,17.50
2022-08-23T10:45:00.984Z,14.85
2022-08-23T10:50:14.952Z,17.10
2022-08-23T10:56:06.273Z,17.65
2022-08-23T11:01:13.820Z,15.80
2022-08-23T11:06:36.044Z,15.25
2022-08-23T11:12:06.098Z,13.13
2022-08-23T11:17:25.317Z,20.50
2022-08-23T11:22:36.500Z,20.52
2022-08-23T11:27:42.226Z,13.18
2022-08-23T11:32:46.735Z,13.18
2022-08-23T11:37:57.741Z,23.02
2022-08-23T11:43:48.675Z,14.60
2022-08-23T11:49:01.116Z,18.77
2022-08-23T11:54:34.640Z,16.30
2022-08-23T11:59:55.547Z,16.50
2022-08-23T12:05:09.465Z,17.83
2022-08-23T12:10:22.425Z,20.13
2022-08-23T12:16:04.049Z,15.38
2022-08-23T12:21:09.714Z,14.00
2022-08-23T12:26:38.495Z,19.92
2022-08-23T12:32:12.827Z,16.05
2022-08-23T12:37:31.050Z,14.98
2022-08-23T12:42:39.542Z,17.10
2022-08-23T12:47:44.690Z,16.27
2022-08-23T12:52:58.747Z,14.75
2022-08-23T12:58:02.023Z,16.27
2022-08-23T13:03:19.696Z,19.77
2022-08-23T13:08:34.740Z,22.48
2022-08-23T13:13:43.452Z,15.52
2022-08-23T13:18:47.173Z,20.85
2022-08-23T13:24:01.853Z,17.88
2022-08-23T13:29:10.061Z,22.38
2022-08-23T13:34:39.905Z,15.70
2022-08-23T13:39:54.929Z,19.67
2022-08-23T13:44:58.035Z,12.98
2022-08-23T13:50:03.370Z,19.88
2022-08-23T13:55:06.825Z,21.52
2022-08-23T14:00:12.130Z,21.73
2022-08-23T14:05:22.012Z,18.05
2022-08-23T14:10:25.486Z,18.02
2022-08-23T14:20:53.163Z,13.10
2022-08-23T14:25:57.306Z,14.30
2022-08-23T14:31:00.613Z,12.82
2022-08-23T14:36:05.236Z,18.95
2022-08-23T14:41:11.065Z,17.17
2022-08-23T14:46:16.561Z,17.95
2022-08-23T14:51:33.856Z,17.02
2022-08-23T14:56:37.476Z,16.50
2022-08-23T15:01:49.508Z,17.70
2022-08-23T15:07:16.649Z,15.70
2022-08-23T15:17:52.863Z,15.50
2022-08-23T15:22:56.385Z,18.23
2022-08-23T15:28:02.469Z,16.88
2022-08-23T15:33:06.046Z,16.70
2022-08-23T15:38:16.375Z,17.55
2022-08-23T15:43:22.351Z,16.77
2022-08-23T15:48:33.106Z,21.27
2022-08-23T15:53:40.017Z,17.60
2022-08-23T15:58:43.179Z,17.17
2022-08-23T16:03:46.506Z,14.52
2022-08-23T16:08:53.077Z,9.27
2022-08-23T16:13:56.387Z,10.38
2022-08-23T16:19:01.015Z,10.07
2022-08-23T16:24:04.776Z,8.63
2022-08-23T16:29:10.983Z,8.77
2022-08-23T16:34:19.195Z,6.88
2022-08-23T16:39:23.144Z,8.52
2022-08-23T16:44:40.736Z,5.45
2022-08-23T16:49:46.596Z,5.90
2022-08-23T16:54:51.604Z,5.00
2022-08-23T16:59:56.124Z,5.47
2022-08-23T17:05:00.453Z,6.68
2022-08-23T17:10:04.476Z,5.93
2022-08-23T17:15:10.739Z,5.85
2022-08-23T17:20:15.994Z,8.88
2022-08-23T17:25:20.068Z,7.70
2022-08-23T17:45:51.942Z,7.90
2022-08-23T17:50:56.119Z,9.77
2022-08-23T17:55:59.618Z,7.63
2022-08-23T18:01:03.023Z,6.97
2022-08-23T18:06:16.664Z,10.93
2022-08-23T18:11:20.711Z,9.20
2022-08-23T18:16:27.903Z,7.57
2022-08-23T18:21:34.091Z,18.13
2022-08-23T18:26:57.269Z,11.90
2022-08-23T18:32:01.510Z,11.63
2022-08-23T18:37:07.031Z,13.65
2022-08-23T18:42:11.548Z,12.70
2022-08-23T18:47:15.606Z,13.45
2022-08-23T18:52:19.640Z,7.50
2022-08-23T18:57:23.460Z,11.95
2022-08-23T19:02:27.624Z,11.48
2022-08-23T19:07:31.340Z,16.20
2022-08-23T19:12:35.591Z,12.10
2022-08-23T19:17:39.761Z,10.85
2022-08-23T19:22:44.571Z,13.18
2022-08-23T19:27:48.530Z,10.65
2022-08-23T19:39:09.869Z,10.50
2022-08-23T19:44:18.550Z,10.23
2022-08-23T19:49:37.595Z,9.55
2022-08-23T19:54:43.370Z,11.07
2022-08-23T20:00:01.922Z,10.00
2022-08-23T20:05:09.488Z,12.32
2022-08-23T20:10:15.501Z,10.75
2022-08-23T20:15:20.291Z,12.60
2022-08-23T20:20:25.448Z,15.20
2022-08-23T20:25:31.010Z,12.90
2022-08-23T20:30:38.509Z,14.32
2022-08-23T20:35:42.033Z,15.43
2022-08-23T20:40:45.451Z,15.60
2022-08-23T20:45:51.076Z,14.93
2022-08-23T20:50:54.114Z,14.95
2022-08-23T20:55:58.261Z,15.48
2022-08-23T21:01:01.705Z,16.52
2022-08-23T21:06:10.220Z,15.45
2022-08-23T21:11:14.051Z,14.82
2022-08-23T21:16:18.600Z,12.70
2022-08-23T21:21:22.001Z,14.05
2022-08-23T21:26:25.743Z,14.65
2022-08-23T21:31:29.518Z,11.88
2022-08-23T21:36:33.020Z,12.00
2022-08-23T21:41:39.772Z,13.60
2022-08-23T21:46:43.724Z,16.30
2022-08-23T21:51:49.113Z,14.57
2022-08-23T21:56:52.819Z,15.23
2022-08-23T22:01:56.366Z,12.77
2022-08-23T22:07:01.982Z,20.92
2022-08-23T22:12:07.012Z,24.65
2022-08-23T22:17:11.031Z,17.63
2022-08-23T22:22:15.642Z,15.43
2022-08-23T22:27:19.929Z,15.65
2022-08-23T22:32:26.674Z,15.85
2022-08-23T22:38:03.555Z,18.15
2022-08-23T22:43:18.864Z,16.27
2022-08-23T22:48:33.902Z,14.75
2022-08-23T22:53:45.089Z,19.52
2022-08-23T22:58:55.322Z,15.30
2022-08-23T23:04:04.733Z,16.63
2022-08-23T23:09:12.583Z,15.70
2022-08-23T23:14:17.842Z,16.23
2022-08-23T23:19:39.943Z,17.52
2022-08-23T23:24:43.441Z,17.55
2022-08-23T23:29:47.401Z,17.65
2022-08-23T23:34:53.732Z,17.90
2022-08-23T23:40:03.364Z,23.40
2022-08-23T23:52:07.821Z,16.83
2022-08-23T23:57:20.131Z,17.55
